sensor_id;sensor_type;location;lat;lon;timestamp;temperature;humidity
67777;DHT22;54576;52.020;5.536;2023-08-08T00:00:19;14.60;99.90
67777;DHT22;54576;52.020;5.536;2023-08-08T00:02:47;14.60;99.90
67777;DHT22;54576;52.020;5.536;2023-08-08T00:05:12;14.60;99.90
67777;DHT22;54576;52.020;5.536;2023-08-08T00:07:38;14.60;99.90
67777;DHT22;54576;52.020;5.536;2023-08-08T00:10:04;14.70;99.90
67777;DHT22;54576;52.020;5.536;2023-08-08T00:12:30;14.70;99.90
67777;DHT22;54576;52.020;5.536;2023-08-08T00:14:55;14.70;99.90
67777;DHT22;54576;52.020;5.536;2023-08-08T00:17:21;14.70;99.90
67777;DHT22;54576;52.020;5.536;2023-08-08T00:19:46;14.80;99.90
67777;DHT22;54576;52.020;5.536;2023-08-08T00:22:12;14.80;99.90
67777;DHT22;54576;52.020;5.536;2023-08-08T00:24:37;14.90;99.90
67777;DHT22;54576;52.020;5.536;2023-08-08T00:27:03;14.80;99.90
67777;DHT22;54576;52.020;5.536;2023-08-08T00:29:29;14.90;99.90
67777;DHT22;54576;52.020;5.536;2023-08-08T00:31:54;14.90;99.90
67777;DHT22;54576;52.020;5.536;2023-08-08T00:34:21;14.90;99.90
67777;DHT22;54576;52.020;5.536;2023-08-08T00:36:46;14.90;99.90
67777;DHT22;54576;52.020;5.536;2023-08-08T00:39:12;15.00;99.90
67777;DHT22;54576;52.020;5.536;2023-08-08T00:41:37;15.00;99.90
67777;DHT22;54576;52.020;5.536;2023-08-08T00:44:03;15.00;99.90
67777;DHT22;54576;52.020;5.536;2023-08-08T00:46:28;15.00;99.90
67777;DHT22;54576;52.020;5.536;2023-08-08T00:48:54;15.10;99.90
67777;DHT22;54576;52.020;5.536;2023-08-08T00:51:20;15.10;99.90
67777;DHT22;54576;52.020;5.536;2023-08-08T00:53:47;15.10;99.90
67777;DHT22;54576;52.020;5.536;2023-08-08T00:56:13;15.10;99.90
67777;DHT22;54576;52.020;5.536;2023-08-08T00:58:40;15.10;99.90
67777;DHT22;54576;52.020;5.536;2023-08-08T01:01:06;15.10;99.90
67777;DHT22;54576;52.020;5.536;2023-08-08T01:03:31;15.10;99.90
67777;DHT22;54576;52.020;5.536;2023-08-08T01:08:58;15.10;99.90
67777;DHT22;54576;52.020;5.536;2023-08-08T01:11:27;15.10;99.90
67777;DHT22;54576;52.020;5.536;2023-08-08T01:13:54;15.10;99.90
67777;DHT22;54576;52.020;5.536;2023-08-08T01:16:21;15.10;99.90
67777;DHT22;54576;52.020;5.536;2023-08-08T01:18:48;15.00;99.90
67777;DHT22;54576;52.020;5.536;2023-08-08T01:21:15;15.00;99.90
67777;DHT22;54576;52.020;5.536;2023-08-08T01:26:37;14.90;99.90
67777;DHT22;54576;52.020;5.536;2023-08-08T01:29:02;14.90;99.90
67777;DHT22;54576;52.020;5.536;2023-08-08T01:31:28;14.90;99.90
67777;DHT22;54576;52.020;5.536;2023-08-08T01:33:54;14.90;99.90
67777;DHT22;54576;52.020;5.536;2023-08-08T01:36:29;14.90;99.90
67777;DHT22;54576;52.020;5.536;2023-08-08T01:38:59;14.90;99.90
67777;DHT22;54576;52.020;5.536;2023-08-08T01:41:32;14.90;99.90
67777;DHT22;54576;52.020;5.536;2023-08-08T01:43:59;14.80;99.90
67777;DHT22;54576;52.020;5.536;2023-08-08T01:46:26;15.00;99.90
67777;DHT22;54576;52.020;5.536;2023-08-08T01:48:52;14.80;99.90
67777;DHT22;54576;52.020;5.536;2023-08-08T01:53:43;14.70;99.90
67777;DHT22;54576;52.020;5.536;2023-08-08T01:56:09;14.70;99.90
67777;DHT22;54576;52.020;5.536;2023-08-08T01:58:34;14.70;99.90
67777;DHT22;54576;52.020;5.536;2023-08-08T02:01:00;14.70;99.90
67777;DHT22;54576;52.020;5.536;2023-08-08T02:05:51;14.60;99.90
67777;DHT22;54576;52.020;5.536;2023-08-08T02:08:17;14.60;99.90
67777;DHT22;54576;52.020;5.536;2023-08-08T02:10:43;14.50;99.90
67777;DHT22;54576;52.020;5.536;2023-08-08T02:13:09;14.50;99.90
67777;DHT22;54576;52.020;5.536;2023-08-08T02:15:34;14.40;99.90
67777;DHT22;54576;52.020;5.536;2023-08-08T02:18:00;14.50;99.90
67777;DHT22;54576;52.020;5.536;2023-08-08T02:20:26;14.40;99.90
67777;DHT22;54576;52.020;5.536;2023-08-08T02:22:52;14.40;99.90
67777;DHT22;54576;52.020;5.536;2023-08-08T02:25:18;14.50;99.90
67777;DHT22;54576;52.020;5.536;2023-08-08T02:27:43;14.50;99.90
67777;DHT22;54576;52.020;5.536;2023-08-08T02:30:09;14.50;99.90
67777;DHT22;54576;52.020;5.536;2023-08-08T02:32:35;14.40;99.90
67777;DHT22;54576;52.020;5.536;2023-08-08T02:35:01;14.40;99.90
67777;DHT22;54576;52.020;5.536;2023-08-08T02:37:29;14.40;99.90
67777;DHT22;54576;52.020;5.536;2023-08-08T02:39:55;14.40;99.90
67777;DHT22;54576;52.020;5.536;2023-08-08T02:42:20;14.40;99.90
67777;DHT22;54576;52.020;5.536;2023-08-08T02:44:46;14.50;99.90
67777;DHT22;54576;52.020;5.536;2023-08-08T02:47:11;14.40;99.90
67777;DHT22;54576;52.020;5.536;2023-08-08T02:49:37;14.40;99.90
67777;DHT22;54576;52.020;5.536;2023-08-08T02:52:03;14.40;99.90
67777;DHT22;54576;52.020;5.536;2023-08-08T02:54:28;14.40;99.90
67777;DHT22;54576;52.020;5.536;2023-08-08T02:56:54;14.30;99.90
67777;DHT22;54576;52.020;5.536;2023-08-08T02:59:20;14.30;99.90
67777;DHT22;54576;52.020;5.536;2023-08-08T03:01:46;14.30;99.90
67777;DHT22;54576;52.020;5.536;2023-08-08T03:04:12;14.30;99.90
67777;DHT22;54576;52.020;5.536;2023-08-08T03:06:38;14.30;99.90
67777;DHT22;54576;52.020;5.536;2023-08-08T03:09:03;14.30;99.90
67777;DHT22;54576;52.020;5.536;2023-08-08T03:11:30;14.30;99.90
67777;DHT22;54576;52.020;5.536;2023-08-08T03:13:56;14.40;99.90
67777;DHT22;54576;52.020;5.536;2023-08-08T03:16:21;14.40;99.90
67777;DHT22;54576;52.020;5.536;2023-08-08T03:18:47;14.40;99.90
67777;DHT22;54576;52.020;5.536;2023-08-08T03:21:12;14.40;99.90
67777;DHT22;54576;52.020;5.536;2023-08-08T03:23:38;14.40;99.90
67777;DHT22;54576;52.020;5.536;2023-08-08T03:26:04;14.40;99.90
67777;DHT22;54576;52.020;5.536;2023-08-08T03:28:29;14.40;99.90
67777;DHT22;54576;52.020;5.536;2023-08-08T03:30:55;14.40;99.90
67777;DHT22;54576;52.020;5.536;2023-08-08T03:33:20;14.40;99.90
67777;DHT22;54576;52.020;5.536;2023-08-08T03:35:46;14.40;99.90
67777;DHT22;54576;52.020;5.536;2023-08-08T03:38:11;14.40;99.90
67777;DHT22;54576;52.020;5.536;2023-08-08T03:40:37;14.40;99.90
67777;DHT22;54576;52.020;5.536;2023-08-08T03:43:03;14.30;99.90
67777;DHT22;54576;52.020;5.536;2023-08-08T03:45:28;14.30;99.90
67777;DHT22;54576;52.020;5.536;2023-08-08T03:47:54;14.30;99.90
67777;DHT22;54576;52.020;5.536;2023-08-08T03:50:20;14.30;99.90
67777;DHT22;54576;52.020;5.536;2023-08-08T03:52:46;14.20;99.90
67777;DHT22;54576;52.020;5.536;2023-08-08T03:55:11;14.30;99.90
67777;DHT22;54576;52.020;5.536;2023-08-08T03:57:37;14.20;99.90
67777;DHT22;54576;52.020;5.536;2023-08-08T04:00:03;14.30;99.90
67777;DHT22;54576;52.020;5.536;2023-08-08T04:02:29;14.20;99.90
67777;DHT22;54576;52.020;5.536;2023-08-08T04:04:55;14.30;99.90
67777;DHT22;54576;52.020;5.536;2023-08-08T04:07:20;14.30;99.90
67777;DHT22;54576;52.020;5.536;2023-08-08T04:09:46;14.30;99.90
67777;DHT22;54576;52.020;5.536;2023-08-08T04:12:11;14.20;99.90
67777;DHT22;54576;52.020;5.536;2023-08-08T04:14:37;14.20;99.90
67777;DHT22;54576;52.020;5.536;2023-08-08T04:17:03;14.20;99.90
67777;DHT22;54576;52.020;5.536;2023-08-08T04:19:30;14.20;99.90
67777;DHT22;54576;52.020;5.536;2023-08-08T04:21:55;14.20;99.90
67777;DHT22;54576;52.020;5.536;2023-08-08T04:24:21;14.20;99.90
67777;DHT22;54576;52.020;5.536;2023-08-08T04:26:46;14.10;99.90
67777;DHT22;54576;52.020;5.536;2023-08-08T04:29:12;14.10;99.90
67777;DHT22;54576;52.020;5.536;2023-08-08T04:31:37;14.10;99.90
67777;DHT22;54576;52.020;5.536;2023-08-08T04:34:03;14.10;99.90
67777;DHT22;54576;52.020;5.536;2023-08-08T04:36:29;14.10;99.90
67777;DHT22;54576;52.020;5.536;2023-08-08T04:39:04;14.10;99.90
67777;DHT22;54576;52.020;5.536;2023-08-08T04:41:30;14.10;99.90
67777;DHT22;54576;52.020;5.536;2023-08-08T04:43:55;14.10;99.90
67777;DHT22;54576;52.020;5.536;2023-08-08T04:46:21;14.10;99.90
67777;DHT22;54576;52.020;5.536;2023-08-08T04:48:46;14.20;99.90
67777;DHT22;54576;52.020;5.536;2023-08-08T04:51:12;14.20;99.90
67777;DHT22;54576;52.020;5.536;2023-08-08T04:53:37;14.20;99.90
67777;DHT22;54576;52.020;5.536;2023-08-08T04:56:03;14.20;99.90
67777;DHT22;54576;52.020;5.536;2023-08-08T04:58:29;14.30;99.90
67777;DHT22;54576;52.020;5.536;2023-08-08T05:00:54;14.30;99.90
67777;DHT22;54576;52.020;5.536;2023-08-08T05:03:20;14.30;99.90
67777;DHT22;54576;52.020;5.536;2023-08-08T05:05:46;14.30;99.90
67777;DHT22;54576;52.020;5.536;2023-08-08T05:08:13;14.40;99.90
67777;DHT22;54576;52.020;5.536;2023-08-08T05:10:39;14.40;99.90
67777;DHT22;54576;52.020;5.536;2023-08-08T05:13:04;14.40;99.90
67777;DHT22;54576;52.020;5.536;2023-08-08T05:15:30;14.50;99.90
67777;DHT22;54576;52.020;5.536;2023-08-08T05:17:56;14.50;99.90
67777;DHT22;54576;52.020;5.536;2023-08-08T05:20:22;14.60;99.90
67777;DHT22;54576;52.020;5.536;2023-08-08T05:22:48;14.60;99.90
67777;DHT22;54576;52.020;5.536;2023-08-08T05:25:13;14.70;99.90
67777;DHT22;54576;52.020;5.536;2023-08-08T05:27:39;14.70;99.90
67777;DHT22;54576;52.020;5.536;2023-08-08T05:30:06;14.70;99.90
67777;DHT22;54576;52.020;5.536;2023-08-08T05:32:31;14.90;99.90
67777;DHT22;54576;52.020;5.536;2023-08-08T05:34:57;15.00;99.90
67777;DHT22;54576;52.020;5.536;2023-08-08T05:37:26;15.00;99.90
67777;DHT22;54576;52.020;5.536;2023-08-08T05:39:53;15.00;99.90
67777;DHT22;54576;52.020;5.536;2023-08-08T05:42:18;15.00;99.90
67777;DHT22;54576;52.020;5.536;2023-08-08T05:44:44;15.20;99.90
67777;DHT22;54576;52.020;5.536;2023-08-08T05:47:10;15.60;99.90
67777;DHT22;54576;52.020;5.536;2023-08-08T05:49:37;15.80;99.90
67777;DHT22;54576;52.020;5.536;2023-08-08T05:52:03;15.80;99.90
67777;DHT22;54576;52.020;5.536;2023-08-08T05:54:29;15.80;99.90
67777;DHT22;54576;52.020;5.536;2023-08-08T05:56:54;15.80;99.90
67777;DHT22;54576;52.020;5.536;2023-08-08T05:59:20;16.10;99.90
67777;DHT22;54576;52.020;5.536;2023-08-08T06:01:46;16.80;99.90
67777;DHT22;54576;52.020;5.536;2023-08-08T06:04:12;17.40;99.90
67777;DHT22;54576;52.020;5.536;2023-08-08T06:06:37;17.40;99.90
67777;DHT22;54576;52.020;5.536;2023-08-08T06:09:03;17.10;99.90
67777;DHT22;54576;52.020;5.536;2023-08-08T06:11:29;17.00;99.90
67777;DHT22;54576;52.020;5.536;2023-08-08T06:13:55;16.80;99.90
67777;DHT22;54576;52.020;5.536;2023-08-08T06:16:21;16.90;99.90
67777;DHT22;54576;52.020;5.536;2023-08-08T06:18:46;17.00;99.90
67777;DHT22;54576;52.020;5.536;2023-08-08T06:21:12;16.90;99.90
67777;DHT22;54576;52.020;5.536;2023-08-08T06:23:37;16.90;99.90
67777;DHT22;54576;52.020;5.536;2023-08-08T06:26:03;17.00;99.90
67777;DHT22;54576;52.020;5.536;2023-08-08T06:28:29;17.40;99.90
67777;DHT22;54576;52.020;5.536;2023-08-08T06:30:56;18.00;99.90
67777;DHT22;54576;52.020;5.536;2023-08-08T06:33:22;18.40;99.90
67777;DHT22;54576;52.020;5.536;2023-08-08T06:35:47;18.80;99.90
67777;DHT22;54576;52.020;5.536;2023-08-08T06:40:39;19.10;99.90
67777;DHT22;54576;52.020;5.536;2023-08-08T06:43:04;19.40;99.90
67777;DHT22;54576;52.020;5.536;2023-08-08T06:45:30;19.60;99.90
67777;DHT22;54576;52.020;5.536;2023-08-08T06:47:58;19.70;99.90
67777;DHT22;54576;52.020;5.536;2023-08-08T06:50:24;19.80;99.90
67777;DHT22;54576;52.020;5.536;2023-08-08T06:52:50;20.00;99.90
67777;DHT22;54576;52.020;5.536;2023-08-08T06:55:16;20.10;99.90
67777;DHT22;54576;52.020;5.536;2023-08-08T06:57:42;20.00;99.90
67777;DHT22;54576;52.020;5.536;2023-08-08T07:00:08;20.10;99.90
67777;DHT22;54576;52.020;5.536;2023-08-08T07:02:37;20.30;99.90
67777;DHT22;54576;52.020;5.536;2023-08-08T07:05:02;20.50;99.90
67777;DHT22;54576;52.020;5.536;2023-08-08T07:09:56;20.60;99.90
67777;DHT22;54576;52.020;5.536;2023-08-08T07:12:22;20.30;99.90
67777;DHT22;54576;52.020;5.536;2023-08-08T07:14:47;19.90;99.90
67777;DHT22;54576;52.020;5.536;2023-08-08T07:17:16;19.70;99.90
67777;DHT22;54576;52.020;5.536;2023-08-08T07:19:42;19.90;99.90
67777;DHT22;54576;52.020;5.536;2023-08-08T07:22:07;19.80;99.90
67777;DHT22;54576;52.020;5.536;2023-08-08T07:24:34;19.80;99.90
67777;DHT22;54576;52.020;5.536;2023-08-08T07:26:59;19.70;99.90
67777;DHT22;54576;52.020;5.536;2023-08-08T07:29:25;19.70;99.90
67777;DHT22;54576;52.020;5.536;2023-08-08T07:31:54;19.60;99.90
67777;DHT22;54576;52.020;5.536;2023-08-08T07:34:20;19.50;99.90
67777;DHT22;54576;52.020;5.536;2023-08-08T07:36:47;19.20;99.90
67777;DHT22;54576;52.020;5.536;2023-08-08T07:39:12;19.00;99.90
67777;DHT22;54576;52.020;5.536;2023-08-08T07:41:38;18.80;99.90
67777;DHT22;54576;52.020;5.536;2023-08-08T07:44:05;18.80;99.90
67777;DHT22;54576;52.020;5.536;2023-08-08T07:46:31;18.80;99.90
67777;DHT22;54576;52.020;5.536;2023-08-08T07:48:57;18.70;99.60
67777;DHT22;54576;52.020;5.536;2023-08-08T07:51:25;18.80;99.90
67777;DHT22;54576;52.020;5.536;2023-08-08T07:53:51;18.80;99.90
67777;DHT22;54576;52.020;5.536;2023-08-08T07:56:16;18.90;99.50
67777;DHT22;54576;52.020;5.536;2023-08-08T07:58:42;18.90;98.20
67777;DHT22;54576;52.020;5.536;2023-08-08T08:01:07;18.90;96.50
67777;DHT22;54576;52.020;5.536;2023-08-08T08:03:33;18.90;97.80
67777;DHT22;54576;52.020;5.536;2023-08-08T08:05:58;18.80;97.70
67777;DHT22;54576;52.020;5.536;2023-08-08T08:08:24;18.70;97.40
67777;DHT22;54576;52.020;5.536;2023-08-08T08:10:50;18.80;98.50
67777;DHT22;54576;52.020;5.536;2023-08-08T08:13:16;18.90;96.60
67777;DHT22;54576;52.020;5.536;2023-08-08T08:15:42;18.90;95.80
67777;DHT22;54576;52.020;5.536;2023-08-08T08:18:08;18.90;95.20
67777;DHT22;54576;52.020;5.536;2023-08-08T08:20:33;18.90;95.20
67777;DHT22;54576;52.020;5.536;2023-08-08T08:22:59;18.90;94.80
67777;DHT22;54576;52.020;5.536;2023-08-08T08:25:25;19.00;92.90
67777;DHT22;54576;52.020;5.536;2023-08-08T08:27:50;19.00;93.00
67777;DHT22;54576;52.020;5.536;2023-08-08T08:30:16;19.10;93.60
67777;DHT22;54576;52.020;5.536;2023-08-08T08:32:43;19.20;93.40
67777;DHT22;54576;52.020;5.536;2023-08-08T08:35:09;19.10;92.60
67777;DHT22;54576;52.020;5.536;2023-08-08T08:37:35;19.00;93.70
67777;DHT22;54576;52.020;5.536;2023-08-08T08:40:01;19.00;94.70
67777;DHT22;54576;52.020;5.536;2023-08-08T08:42:28;18.80;92.30
67777;DHT22;54576;52.020;5.536;2023-08-08T08:44:58;18.80;93.00
67777;DHT22;54576;52.020;5.536;2023-08-08T08:47:30;18.90;93.30
67777;DHT22;54576;52.020;5.536;2023-08-08T08:49:57;19.10;90.70
67777;DHT22;54576;52.020;5.536;2023-08-08T08:52:22;19.30;91.40
67777;DHT22;54576;52.020;5.536;2023-08-08T08:54:48;19.40;90.70
67777;DHT22;54576;52.020;5.536;2023-08-08T08:57:15;19.50;90.00
67777;DHT22;54576;52.020;5.536;2023-08-08T08:59:41;19.50;87.90
67777;DHT22;54576;52.020;5.536;2023-08-08T09:02:08;19.40;90.00
67777;DHT22;54576;52.020;5.536;2023-08-08T09:04:34;19.40;85.20
67777;DHT22;54576;52.020;5.536;2023-08-08T09:07:00;19.30;90.10
67777;DHT22;54576;52.020;5.536;2023-08-08T09:09:26;19.30;90.60
67777;DHT22;54576;52.020;5.536;2023-08-08T09:11:53;19.40;91.20
67777;DHT22;54576;52.020;5.536;2023-08-08T09:14:24;19.50;87.90
67777;DHT22;54576;52.020;5.536;2023-08-08T09:16:51;19.60;84.00
67777;DHT22;54576;52.020;5.536;2023-08-08T09:19:19;19.60;85.70
67777;DHT22;54576;52.020;5.536;2023-08-08T09:21:45;19.70;86.10
67777;DHT22;54576;52.020;5.536;2023-08-08T09:24:11;19.70;86.00
67777;DHT22;54576;52.020;5.536;2023-08-08T09:26:37;19.70;86.30
67777;DHT22;54576;52.020;5.536;2023-08-08T09:29:04;19.80;85.80
67777;DHT22;54576;52.020;5.536;2023-08-08T09:31:30;19.90;83.40
67777;DHT22;54576;52.020;5.536;2023-08-08T09:33:59;19.90;80.90
67777;DHT22;54576;52.020;5.536;2023-08-08T09:36:28;19.80;81.30
67777;DHT22;54576;52.020;5.536;2023-08-08T09:38:54;19.70;78.80
67777;DHT22;54576;52.020;5.536;2023-08-08T09:41:22;19.60;64.40
67777;DHT22;54576;52.020;5.536;2023-08-08T09:43:52;19.60;82.60
67777;DHT22;54576;52.020;5.536;2023-08-08T09:46:22;19.70;81.40
67777;DHT22;54576;52.020;5.536;2023-08-08T09:48:48;19.70;76.10
67777;DHT22;54576;52.020;5.536;2023-08-08T09:51:15;19.80;80.40
67777;DHT22;54576;52.020;5.536;2023-08-08T09:53:41;20.00;80.00
67777;DHT22;54576;52.020;5.536;2023-08-08T09:56:07;20.10;79.30
67777;DHT22;54576;52.020;5.536;2023-08-08T09:58:33;20.20;78.20
67777;DHT22;54576;52.020;5.536;2023-08-08T10:00:59;20.40;78.30
67777;DHT22;54576;52.020;5.536;2023-08-08T10:03:25;20.70;77.50
67777;DHT22;54576;52.020;5.536;2023-08-08T10:05:52;20.80;75.30
67777;DHT22;54576;52.020;5.536;2023-08-08T10:08:18;20.60;74.60
67777;DHT22;54576;52.020;5.536;2023-08-08T10:10:46;20.40;75.20
67777;DHT22;54576;52.020;5.536;2023-08-08T10:13:23;20.30;75.90
67777;DHT22;54576;52.020;5.536;2023-08-08T10:15:50;20.10;69.70
67777;DHT22;54576;52.020;5.536;2023-08-08T10:18:17;20.10;77.40
67777;DHT22;54576;52.020;5.536;2023-08-08T10:20:44;20.20;79.40
67777;DHT22;54576;52.020;5.536;2023-08-08T10:25:47;20.20;76.00
67777;DHT22;54576;52.020;5.536;2023-08-08T10:28:15;20.20;76.10
67777;DHT22;54576;52.020;5.536;2023-08-08T10:30:48;20.20;76.20
67777;DHT22;54576;52.020;5.536;2023-08-08T10:33:40;20.10;75.20
67777;DHT22;54576;52.020;5.536;2023-08-08T10:36:07;20.00;73.70
67777;DHT22;54576;52.020;5.536;2023-08-08T10:38:43;20.00;77.30
67777;DHT22;54576;52.020;5.536;2023-08-08T10:41:13;20.10;66.80
67777;DHT22;54576;52.020;5.536;2023-08-08T10:43:50;20.20;75.50
67777;DHT22;54576;52.020;5.536;2023-08-08T10:46:23;20.30;73.60
67777;DHT22;54576;52.020;5.536;2023-08-08T10:48:57;20.50;73.60
67777;DHT22;54576;52.020;5.536;2023-08-08T10:51:39;20.60;72.90
67777;DHT22;54576;52.020;5.536;2023-08-08T10:54:06;20.70;70.70
67777;DHT22;54576;52.020;5.536;2023-08-08T10:56:32;20.70;73.40
67777;DHT22;54576;52.020;5.536;2023-08-08T10:58:58;20.60;72.70
67777;DHT22;54576;52.020;5.536;2023-08-08T11:01:26;20.40;73.10
67777;DHT22;54576;52.020;5.536;2023-08-08T11:03:52;20.30;72.00
67777;DHT22;54576;52.020;5.536;2023-08-08T11:06:18;20.30;75.00
67777;DHT22;54576;52.020;5.536;2023-08-08T11:08:44;20.30;73.50
67777;DHT22;54576;52.020;5.536;2023-08-08T11:11:10;20.30;74.10
67777;DHT22;54576;52.020;5.536;2023-08-08T11:16:02;20.40;73.70
67777;DHT22;54576;52.020;5.536;2023-08-08T11:18:28;20.50;73.90
67777;DHT22;54576;52.020;5.536;2023-08-08T11:20:56;20.50;73.40
67777;DHT22;54576;52.020;5.536;2023-08-08T11:23:22;20.60;73.50
67777;DHT22;54576;52.020;5.536;2023-08-08T11:25:47;20.60;72.40
67777;DHT22;54576;52.020;5.536;2023-08-08T11:28:14;20.50;72.50
67777;DHT22;54576;52.020;5.536;2023-08-08T11:30:42;20.60;72.20
67777;DHT22;54576;52.020;5.536;2023-08-08T11:33:10;20.80;71.90
67777;DHT22;54576;52.020;5.536;2023-08-08T11:35:37;21.00;71.50
67777;DHT22;54576;52.020;5.536;2023-08-08T11:38:08;21.00;69.80
67777;DHT22;54576;52.020;5.536;2023-08-08T11:40:34;21.10;71.30
67777;DHT22;54576;52.020;5.536;2023-08-08T11:43:00;21.10;70.30
67777;DHT22;54576;52.020;5.536;2023-08-08T11:45:26;20.90;68.60
67777;DHT22;54576;52.020;5.536;2023-08-08T11:48:01;20.90;69.50
67777;DHT22;54576;52.020;5.536;2023-08-08T11:50:27;20.80;68.60
67777;DHT22;54576;52.020;5.536;2023-08-08T11:52:54;20.80;68.90
67777;DHT22;54576;52.020;5.536;2023-08-08T11:55:21;20.90;70.80
67777;DHT22;54576;52.020;5.536;2023-08-08T11:57:54;21.00;70.10
67777;DHT22;54576;52.020;5.536;2023-08-08T12:00:27;21.30;68.70
67777;DHT22;54576;52.020;5.536;2023-08-08T12:02:53;21.40;67.90
67777;DHT22;54576;52.020;5.536;2023-08-08T12:05:20;21.50;70.30
67777;DHT22;54576;52.020;5.536;2023-08-08T12:10:19;21.30;67.30
67777;DHT22;54576;52.020;5.536;2023-08-08T12:12:46;21.20;68.20
67777;DHT22;54576;52.020;5.536;2023-08-08T12:15:12;21.10;67.80
67777;DHT22;54576;52.020;5.536;2023-08-08T12:17:39;21.10;69.00
67777;DHT22;54576;52.020;5.536;2023-08-08T12:20:06;21.10;69.40
67777;DHT22;54576;52.020;5.536;2023-08-08T12:22:33;21.10;68.20
67777;DHT22;54576;52.020;5.536;2023-08-08T12:24:59;21.10;68.80
67777;DHT22;54576;52.020;5.536;2023-08-08T12:27:25;21.20;69.00
67777;DHT22;54576;52.020;5.536;2023-08-08T12:29:50;21.10;69.40
67777;DHT22;54576;52.020;5.536;2023-08-08T12:32:20;21.30;69.10
67777;DHT22;54576;52.020;5.536;2023-08-08T12:34:49;21.30;69.20
67777;DHT22;54576;52.020;5.536;2023-08-08T12:37:15;21.20;68.70
67777;DHT22;54576;52.020;5.536;2023-08-08T12:39:40;21.20;69.30
67777;DHT22;54576;52.020;5.536;2023-08-08T12:42:09;21.20;68.60
67777;DHT22;54576;52.020;5.536;2023-08-08T12:44:34;21.20;67.50
67777;DHT22;54576;52.020;5.536;2023-08-08T12:47:00;21.10;68.10
67777;DHT22;54576;52.020;5.536;2023-08-08T12:49:25;20.90;67.20
67777;DHT22;54576;52.020;5.536;2023-08-08T12:51:52;20.70;68.60
67777;DHT22;54576;52.020;5.536;2023-08-08T12:54:18;20.60;68.90
67777;DHT22;54576;52.020;5.536;2023-08-08T12:56:44;20.60;69.20
67777;DHT22;54576;52.020;5.536;2023-08-08T12:59:09;20.60;69.30
67777;DHT22;54576;52.020;5.536;2023-08-08T13:01:37;20.60;69.90
67777;DHT22;54576;52.020;5.536;2023-08-08T13:04:02;20.60;69.50
67777;DHT22;54576;52.020;5.536;2023-08-08T13:06:29;20.70;69.70
67777;DHT22;54576;52.020;5.536;2023-08-08T13:08:54;20.80;69.50
67777;DHT22;54576;52.020;5.536;2023-08-08T13:11:21;20.70;68.60
67777;DHT22;54576;52.020;5.536;2023-08-08T13:13:47;20.60;69.30
67777;DHT22;54576;52.020;5.536;2023-08-08T13:16:12;20.70;69.80
67777;DHT22;54576;52.020;5.536;2023-08-08T13:18:38;20.90;69.20
67777;DHT22;54576;52.020;5.536;2023-08-08T13:21:04;21.10;69.50
67777;DHT22;54576;52.020;5.536;2023-08-08T13:23:29;21.10;67.60
67777;DHT22;54576;52.020;5.536;2023-08-08T13:25:55;21.10;68.70
67777;DHT22;54576;52.020;5.536;2023-08-08T13:28:21;21.20;68.40
67777;DHT22;54576;52.020;5.536;2023-08-08T13:30:47;21.30;68.50
67777;DHT22;54576;52.020;5.536;2023-08-08T13:33:12;21.40;68.20
67777;DHT22;54576;52.020;5.536;2023-08-08T13:35:39;21.30;68.10
67777;DHT22;54576;52.020;5.536;2023-08-08T13:38:04;21.20;67.80
67777;DHT22;54576;52.020;5.536;2023-08-08T13:40:30;21.10;68.20
67777;DHT22;54576;52.020;5.536;2023-08-08T13:45:22;21.20;99.90
67777;DHT22;54576;52.020;5.536;2023-08-08T13:47:48;21.30;68.50
67777;DHT22;54576;52.020;5.536;2023-08-08T13:50:15;21.30;67.30
67777;DHT22;54576;52.020;5.536;2023-08-08T13:52:41;21.30;68.40
67777;DHT22;54576;52.020;5.536;2023-08-08T13:55:08;21.30;68.00
67777;DHT22;54576;52.020;5.536;2023-08-08T13:57:34;21.20;67.80
67777;DHT22;54576;52.020;5.536;2023-08-08T14:00:00;20.90;67.60
67777;DHT22;54576;52.020;5.536;2023-08-08T14:02:26;20.80;68.10
67777;DHT22;54576;52.020;5.536;2023-08-08T14:04:51;20.80;67.40
67777;DHT22;54576;52.020;5.536;2023-08-08T14:07:18;20.70;66.50
67777;DHT22;54576;52.020;5.536;2023-08-08T14:09:43;20.50;67.50
67777;DHT22;54576;52.020;5.536;2023-08-08T14:12:09;20.60;68.30
67777;DHT22;54576;52.020;5.536;2023-08-08T14:14:38;20.60;68.00
67777;DHT22;54576;52.020;5.536;2023-08-08T14:17:04;20.60;68.10
67777;DHT22;54576;52.020;5.536;2023-08-08T14:19:30;20.70;68.50
67777;DHT22;54576;52.020;5.536;2023-08-08T14:24:22;20.90;65.40
67777;DHT22;54576;52.020;5.536;2023-08-08T14:26:50;20.90;67.90
67777;DHT22;54576;52.020;5.536;2023-08-08T14:29:16;20.70;62.30
67777;DHT22;54576;52.020;5.536;2023-08-08T14:31:41;20.60;67.20
67777;DHT22;54576;52.020;5.536;2023-08-08T14:34:07;20.60;67.60
67777;DHT22;54576;52.020;5.536;2023-08-08T14:36:33;20.60;65.90
67777;DHT22;54576;52.020;5.536;2023-08-08T14:38:58;20.60;67.00
67777;DHT22;54576;52.020;5.536;2023-08-08T14:41:24;20.50;66.40
67777;DHT22;54576;52.020;5.536;2023-08-08T14:43:49;20.60;66.50
67777;DHT22;54576;52.020;5.536;2023-08-08T14:46:15;20.50;66.00
67777;DHT22;54576;52.020;5.536;2023-08-08T14:48:40;20.50;66.00
67777;DHT22;54576;52.020;5.536;2023-08-08T14:51:06;20.60;65.90
67777;DHT22;54576;52.020;5.536;2023-08-08T14:53:32;20.50;65.70
67777;DHT22;54576;52.020;5.536;2023-08-08T14:55:57;20.50;65.20
67777;DHT22;54576;52.020;5.536;2023-08-08T14:58:23;20.50;66.40
67777;DHT22;54576;52.020;5.536;2023-08-08T15:00:49;20.40;65.80
67777;DHT22;54576;52.020;5.536;2023-08-08T15:03:14;20.50;66.20
67777;DHT22;54576;52.020;5.536;2023-08-08T15:05:40;20.50;65.60
67777;DHT22;54576;52.020;5.536;2023-08-08T15:08:11;20.50;65.30
67777;DHT22;54576;52.020;5.536;2023-08-08T15:10:39;20.40;65.40
67777;DHT22;54576;52.020;5.536;2023-08-08T15:13:05;20.30;65.30
67777;DHT22;54576;52.020;5.536;2023-08-08T15:15:30;20.40;65.30
67777;DHT22;54576;52.020;5.536;2023-08-08T15:17:56;20.40;65.40
67777;DHT22;54576;52.020;5.536;2023-08-08T15:22:47;20.50;64.40
67777;DHT22;54576;52.020;5.536;2023-08-08T15:25:13;20.60;65.70
67777;DHT22;54576;52.020;5.536;2023-08-08T15:27:39;20.60;65.00
67777;DHT22;54576;52.020;5.536;2023-08-08T15:30:05;20.60;65.30
67777;DHT22;54576;52.020;5.536;2023-08-08T15:32:31;20.60;65.40
67777;DHT22;54576;52.020;5.536;2023-08-08T15:34:57;20.50;65.30
67777;DHT22;54576;52.020;5.536;2023-08-08T15:37:22;20.40;65.50
67777;DHT22;54576;52.020;5.536;2023-08-08T15:39:48;20.30;64.90
67777;DHT22;54576;52.020;5.536;2023-08-08T15:42:14;20.20;65.80
67777;DHT22;54576;52.020;5.536;2023-08-08T15:44:39;20.20;65.80
67777;DHT22;54576;52.020;5.536;2023-08-08T15:47:05;20.20;65.80
67777;DHT22;54576;52.020;5.536;2023-08-08T15:49:30;20.30;66.30
67777;DHT22;54576;52.020;5.536;2023-08-08T15:54:23;20.40;65.50
67777;DHT22;54576;52.020;5.536;2023-08-08T15:56:49;20.40;66.00